createdAt,value
2023-01-25T00:01:42.127Z,97350.47
2023-01-25T00:03:44.992Z,97347.09
2023-01-25T00:05:47.703Z,97344.59
2023-01-25T00:07:50.409Z,97346.72
2023-01-25T00:09:53.285Z,97334.53
2023-01-25T00:11:58.136Z,97305.88
2023-01-25T00:14:02.189Z,97296.72
2023-01-25T00:16:06.096Z,97313.97
2023-01-25T00:18:08.942Z,97327.84
2023-01-25T00:20:12.304Z,97327.06
2023-01-25T00:22:15.029Z,97340.53
2023-01-25T00:24:18.124Z,97330.47
2023-01-25T00:26:21.584Z,97326.41
2023-01-25T00:28:24.364Z,97302.16
2023-01-25T00:30:28.429Z,97314.34
2023-01-25T00:32:50.643Z,97322.50
2023-01-25T00:34:53.735Z,97301.41
2023-01-25T00:36:58.127Z,97304.03
2023-01-25T00:39:00.991Z,97311.94
2023-01-25T00:41:03.716Z,97299.22
2023-01-25T00:43:06.396Z,97235.00
2023-01-25T00:45:12.760Z,97310.28
2023-01-25T00:47:17.400Z,97302.56
2023-01-25T00:49:22.278Z,97304.06
2023-01-25T00:51:25.702Z,97309.25
2023-01-25T00:53:28.471Z,97310.38
2023-01-25T00:55:31.332Z,97144.34
2023-01-25T00:57:34.120Z,97293.41
2023-01-25T00:59:36.925Z,97299.94
2023-01-25T01:01:41.829Z,97305.06
2023-01-25T01:03:45.958Z,97296.50
2023-01-25T01:05:49.641Z,97301.84
2023-01-25T01:07:52.441Z,97243.84
2023-01-25T01:09:55.306Z,97270.97
2023-01-25T01:12:00.721Z,97302.06
2023-01-25T01:14:03.457Z,97295.31
2023-01-25T01:16:11.787Z,97297.91
2023-01-25T01:18:14.556Z,97292.66
2023-01-25T01:20:18.919Z,97256.19
2023-01-25T01:22:21.694Z,97293.59
2023-01-25T01:24:24.593Z,97300.38
2023-01-25T01:26:27.497Z,97262.91
2023-01-25T01:28:30.660Z,97274.31
2023-01-25T01:30:33.549Z,97303.69
2023-01-25T01:32:36.399Z,97303.13
2023-01-25T01:34:39.468Z,97293.09
2023-01-25T01:36:44.325Z,97302.31
2023-01-25T01:38:47.553Z,97293.72
2023-01-25T01:40:51.525Z,97258.84
2023-01-25T01:42:59.476Z,97282.25
2023-01-25T01:45:02.523Z,97279.59
2023-01-25T01:47:05.563Z,97295.81
2023-01-25T01:49:15.364Z,97297.16
2023-01-25T01:51:24.279Z,97288.03
2023-01-25T01:53:30.885Z,97248.97
2023-01-25T01:55:34.608Z,97264.56
2023-01-25T01:57:42.669Z,97237.34
2023-01-25T01:59:51.754Z,97282.16
2023-01-25T02:01:55.762Z,97290.81
2023-01-25T02:03:58.841Z,97276.84
2023-01-25T02:06:05.842Z,97289.03
2023-01-25T02:08:13.278Z,97277.28
2023-01-25T02:10:18.361Z,97286.31
2023-01-25T02:12:24.359Z,97290.22
2023-01-25T02:14:29.051Z,97287.78
2023-01-25T02:16:32.327Z,97268.16
2023-01-25T02:18:35.136Z,97199.94
2023-01-25T02:20:41.318Z,97287.69
2023-01-25T02:22:51.173Z,97256.22
2023-01-25T02:25:04.151Z,97283.97
2023-01-25T02:27:08.667Z,97285.81
2023-01-25T02:29:11.887Z,97290.66
2023-01-25T02:31:14.772Z,97288.53
2023-01-25T02:33:17.685Z,97232.81
2023-01-25T02:35:22.035Z,97255.53
2023-01-25T02:37:25.686Z,97276.78
2023-01-25T02:39:29.329Z,97283.38
2023-01-25T02:41:36.042Z,97275.41
2023-01-25T02:43:39.297Z,97268.50
2023-01-25T02:45:42.440Z,97275.31
2023-01-25T02:47:45.274Z,97266.38
2023-01-25T02:49:48.233Z,97272.50
2023-01-25T02:51:55.923Z,97258.38
2023-01-25T02:54:00.028Z,97266.31
2023-01-25T02:56:03.142Z,97275.13
2023-01-25T02:58:08.465Z,97272.31
2023-01-25T03:00:12.428Z,97110.22
2023-01-25T03:02:15.199Z,97258.06
2023-01-25T03:04:18.871Z,97233.53
2023-01-25T03:06:23.704Z,97261.47
2023-01-25T03:08:26.852Z,97271.53
2023-01-25T03:10:30.230Z,97273.47
2023-01-25T03:12:34.059Z,97239.34
2023-01-25T03:14:38.196Z,97265.84
2023-01-25T03:16:41.898Z,97266.16
2023-01-25T03:18:44.740Z,97262.38
2023-01-25T03:20:48.135Z,97264.88
2023-01-25T03:22:51.026Z,97261.91
2023-01-25T03:24:53.888Z,97251.47
2023-01-25T03:27:14.183Z,97251.78
2023-01-25T03:29:20.453Z,97255.09
2023-01-25T03:31:26.570Z,97241.69
2023-01-25T03:33:29.445Z,97245.16
2023-01-25T03:35:32.237Z,97204.56
2023-01-25T03:37:35.030Z,97243.50
2023-01-25T03:39:39.479Z,97228.94
2023-01-25T03:41:42.249Z,97226.63
2023-01-25T03:43:47.440Z,97223.94
2023-01-25T03:45:54.240Z,97238.88
2023-01-25T03:47:58.349Z,97226.94
2023-01-25T03:50:01.157Z,97224.31
2023-01-25T03:52:05.145Z,97234.91
2023-01-25T03:54:13.234Z,97220.66
2023-01-25T03:56:20.232Z,97221.63
2023-01-25T03:58:45.659Z,97132.16
2023-01-25T04:00:48.927Z,97217.50
2023-01-25T04:02:51.801Z,97226.28
2023-01-25T04:04:57.604Z,97214.84
2023-01-25T04:07:00.386Z,97216.19
2023-01-25T04:09:04.644Z,97223.13
2023-01-25T04:11:14.355Z,97222.63
2023-01-25T04:13:20.986Z,97187.84
2023-01-25T04:15:23.761Z,97217.66
2023-01-25T04:17:27.200Z,97223.94
2023-01-25T04:19:35.405Z,97236.38
2023-01-25T04:21:41.345Z,97242.84
2023-01-25T04:23:44.271Z,97226.63
2023-01-25T04:25:54.174Z,97228.59
2023-01-25T04:27:57.042Z,97222.31
2023-01-25T04:30:00.103Z,97158.69
2023-01-25T04:32:04.156Z,97214.69
2023-01-25T04:34:07.305Z,97221.81
2023-01-25T04:36:10.240Z,97218.34
2023-01-25T04:38:15.187Z,97219.47
2023-01-25T04:40:20.136Z,97219.00
2023-01-25T04:42:23.149Z,97224.63
2023-01-25T04:44:29.907Z,97220.31
2023-01-25T04:46:34.780Z,97222.97
2023-01-25T04:48:38.030Z,97220.50
2023-01-25T04:50:44.039Z,97178.56
2023-01-25T04:52:46.936Z,97208.53
2023-01-25T04:54:51.385Z,97219.66
2023-01-25T04:56:54.304Z,97212.69
2023-01-25T04:58:57.211Z,97193.97
2023-01-25T05:01:02.259Z,97222.31
2023-01-25T05:03:05.535Z,97217.19
2023-01-25T05:05:09.497Z,97215.34
2023-01-25T05:07:12.475Z,97130.38
2023-01-25T05:09:17.228Z,97206.06
2023-01-25T05:11:22.359Z,97210.88
2023-01-25T05:13:25.169Z,97172.09
2023-01-25T05:15:36.968Z,97144.78
2023-01-25T05:17:39.942Z,97203.75
2023-01-25T05:19:44.481Z,97208.22
2023-01-25T05:21:59.818Z,97202.44
2023-01-25T05:24:22.998Z,97200.59
2023-01-25T05:26:44.709Z,97183.88
2023-01-25T05:28:47.576Z,97206.56
2023-01-25T05:31:19.597Z,97200.44
2023-01-25T05:33:23.244Z,97205.41
2023-01-25T05:35:26.475Z,97203.75
2023-01-25T05:37:31.601Z,97200.44
2023-01-25T05:39:38.939Z,97208.88
2023-01-25T05:41:43.057Z,97174.25
2023-01-25T05:43:49.047Z,97202.94
2023-01-25T05:45:54.397Z,97179.56
2023-01-25T05:47:58.781Z,97170.44
2023-01-25T05:50:01.951Z,97199.94
2023-01-25T05:52:18.414Z,97193.97
2023-01-25T05:54:21.208Z,97207.22
2023-01-25T05:56:34.442Z,97204.75
2023-01-25T05:58:38.886Z,97207.06
2023-01-25T06:00:41.645Z,97208.06
2023-01-25T06:02:45.156Z,97131.03
2023-01-25T06:04:52.538Z,97181.88
2023-01-25T06:06:55.391Z,97194.13
2023-01-25T06:08:58.565Z,97186.03
2023-01-25T06:11:08.069Z,97194.97
2023-01-25T06:13:11.392Z,97187.50
2023-01-25T06:15:16.699Z,97184.03
2023-01-25T06:17:20.468Z,97191.13
2023-01-25T06:19:44.436Z,97146.09
2023-01-25T06:22:11.588Z,97186.66
2023-01-25T06:24:14.383Z,97172.09
2023-01-25T06:26:17.244Z,97190.81
2023-01-25T06:28:20.127Z,97187.34
2023-01-25T06:30:24.274Z,97185.03
2023-01-25T06:32:27.294Z,97187.34
2023-01-25T06:34:30.011Z,97188.66
2023-01-25T06:36:33.382Z,97188.84
2023-01-25T06:38:36.150Z,97187.19
2023-01-25T06:40:38.889Z,97184.69
2023-01-25T06:42:41.721Z,97187.50
2023-01-25T06:44:44.459Z,97182.53
2023-01-25T06:46:48.804Z,97188.50
2023-01-25T06:48:51.578Z,97181.88
2023-01-25T06:50:59.625Z,97196.47
2023-01-25T06:53:02.469Z,97180.88
2023-01-25T06:55:07.658Z,97187.66
2023-01-25T06:57:12.070Z,97184.84
2023-01-25T06:59:16.058Z,97188.81
2023-01-25T07:01:21.532Z,97075.41
2023-01-25T07:03:25.734Z,97189.50
2023-01-25T07:05:28.571Z,97173.91
2023-01-25T07:07:31.666Z,97175.59
2023-01-25T07:09:34.473Z,97180.88
2023-01-25T07:11:37.640Z,97176.25
2023-01-25T07:13:40.980Z,97175.91
2023-01-25T07:15:43.837Z,97148.09
2023-01-25T07:17:46.627Z,97172.28
2023-01-25T07:19:50.864Z,97131.19
2023-01-25T07:21:53.706Z,97175.25
2023-01-25T07:24:01.361Z,97160.31
2023-01-25T07:26:05.209Z,97161.34
2023-01-25T07:28:07.982Z,97156.19
2023-01-25T07:30:12.197Z,97152.69
2023-01-25T07:32:15.126Z,97147.91
2023-01-25T07:34:18.044Z,97153.19
2023-01-25T07:36:22.903Z,97131.69
2023-01-25T07:38:25.915Z,97155.03
2023-01-25T07:40:28.674Z,97127.53
2023-01-25T07:42:31.385Z,97140.94
2023-01-25T07:44:48.198Z,97141.13
2023-01-25T07:46:50.954Z,97140.94
2023-01-25T07:48:54.537Z,97152.56
2023-01-25T07:51:12.456Z,97144.94
2023-01-25T07:53:16.649Z,97145.94
2023-01-25T07:55:19.493Z,97145.25
2023-01-25T07:57:22.468Z,97143.28
2023-01-25T07:59:25.990Z,97135.16
2023-01-25T08:01:29.748Z,97141.75
2023-01-25T08:03:32.444Z,97152.03
2023-01-25T08:05:35.175Z,97136.81
2023-01-25T08:07:37.955Z,97132.16
2023-01-25T08:09:43.168Z,97078.38
2023-01-25T08:11:45.890Z,97144.06
2023-01-25T08:13:49.807Z,97136.63
2023-01-25T08:15:55.936Z,97145.72
2023-01-25T08:18:00.518Z,97139.59
2023-01-25T08:20:04.498Z,97143.75
2023-01-25T08:22:08.885Z,97147.06
2023-01-25T08:24:11.885Z,97154.19
2023-01-25T08:26:18.119Z,97148.22
2023-01-25T08:28:20.873Z,97150.53
2023-01-25T08:30:23.709Z,97140.91
2023-01-25T08:32:26.450Z,97155.31
2023-01-25T08:34:31.256Z,97146.22
2023-01-25T08:36:34.668Z,97139.91
2023-01-25T08:38:37.714Z,97139.06
2023-01-25T08:40:40.406Z,97145.88
2023-01-25T08:42:44.424Z,97152.69
2023-01-25T08:44:47.127Z,97152.69
2023-01-25T08:46:49.837Z,97137.81
2023-01-25T08:48:54.628Z,97131.16
2023-01-25T08:50:57.385Z,97135.13
2023-01-25T08:53:00.201Z,97136.13
2023-01-25T08:55:03.095Z,97130.34
2023-01-25T08:57:06.285Z,97133.00
2023-01-25T08:59:12.900Z,97119.28
2023-01-25T09:01:17.515Z,97127.88
2023-01-25T09:03:20.279Z,97125.38
2023-01-25T09:05:22.981Z,97116.63
2023-01-25T09:07:25.710Z,97121.41
2023-01-25T09:09:29.906Z,97111.94
2023-01-25T09:11:37.002Z,97120.91
2023-01-25T09:13:43.337Z,97103.88
2023-01-25T09:15:47.437Z,97067.59
2023-01-25T09:17:51.979Z,97088.78
2023-01-25T09:19:54.713Z,97111.47
2023-01-25T09:21:57.437Z,97100.66
2023-01-25T09:24:08.628Z,97003.06
2023-01-25T09:26:15.301Z,97109.13
2023-01-25T09:28:18.009Z,97128.53
2023-01-25T09:30:23.186Z,97092.47
2023-01-25T09:32:33.034Z,97107.66
2023-01-25T09:34:35.777Z,97100.34
2023-01-25T09:36:38.560Z,97105.84
2023-01-25T09:38:41.366Z,97078.88
2023-01-25T09:40:54.207Z,97106.00
2023-01-25T09:43:06.722Z,97103.03
2023-01-25T09:45:21.491Z,97092.47
2023-01-25T09:47:30.613Z,97115.28
2023-01-25T09:49:54.956Z,97087.31
2023-01-25T09:52:17.001Z,97106.63
2023-01-25T09:54:20.990Z,97109.63
2023-01-25T09:56:26.835Z,97100.84
2023-01-25T09:58:34.873Z,97110.97
2023-01-25T10:00:43.561Z,97081.50
2023-01-25T10:02:51.914Z,97095.75
2023-01-25T10:05:02.534Z,97104.34
2023-01-25T10:07:15.516Z,97106.19
2023-01-25T10:09:28.550Z,97094.59
2023-01-25T10:11:33.155Z,97109.84
2023-01-25T10:13:35.937Z,97100.06
2023-01-25T10:15:42.175Z,97108.00
2023-01-25T10:17:45.158Z,97104.19
2023-01-25T10:20:04.391Z,97099.41
2023-01-25T10:22:16.308Z,97099.91
2023-01-25T10:24:41.475Z,97110.16
2023-01-25T10:26:49.400Z,97099.72
2023-01-25T10:28:58.725Z,97080.69
2023-01-25T10:31:04.432Z,97099.34
2023-01-25T10:33:14.428Z,97090.41
2023-01-25T10:35:34.427Z,97092.69
2023-01-25T10:37:38.358Z,97008.03
2023-01-25T10:39:47.560Z,96989.16
2023-01-25T10:41:55.912Z,97044.88
2023-01-25T10:44:12.648Z,97077.53
2023-01-25T10:46:25.535Z,97070.03
2023-01-25T10:48:33.026Z,97065.69
2023-01-25T10:50:52.245Z,97063.56
2023-01-25T10:52:59.606Z,97068.50
2023-01-25T10:55:18.155Z,97054.91
2023-01-25T10:57:23.479Z,97034.41
2023-01-25T10:59:28.530Z,97039.34
2023-01-25T11:01:33.260Z,97044.97
2023-01-25T11:03:38.886Z,97030.38
2023-01-25T11:05:41.817Z,97037.66
2023-01-25T11:07:46.406Z,97035.31
2023-01-25T11:09:49.186Z,97031.66
2023-01-25T11:11:56.218Z,97032.03
2023-01-25T11:13:59.081Z,97022.41
2023-01-25T11:16:22.278Z,97036.97
2023-01-25T11:18:28.569Z,97033.94
2023-01-25T11:20:31.283Z,97030.06
2023-01-25T11:22:34.261Z,97034.75
2023-01-25T11:24:38.454Z,97027.75
2023-01-25T11:26:42.075Z,97026.56
2023-01-25T11:28:46.093Z,96925.72
2023-01-25T11:30:49.694Z,97020.72
2023-01-25T11:32:52.651Z,97020.78
2023-01-25T11:34:56.067Z,97031.41
2023-01-25T11:37:13.986Z,97015.84
2023-01-25T11:39:30.829Z,97026.91
2023-01-25T11:41:47.314Z,97025.06
2023-01-25T11:44:06.648Z,96886.88
2023-01-25T11:46:22.402Z,97018.25
2023-01-25T11:48:49.379Z,97010.75
2023-01-25T11:51:01.837Z,97008.13
2023-01-25T11:53:27.534Z,97000.84
2023-01-25T11:55:35.820Z,96986.63
2023-01-25T11:58:01.605Z,96996.53
2023-01-25T12:00:36.209Z,96989.84
2023-01-25T12:03:05.706Z,96987.78
2023-01-25T12:05:33.624Z,96979.47
2023-01-25T12:07:54.560Z,96976.44
2023-01-25T12:10:14.224Z,96964.50
2023-01-25T12:12:25.713Z,96962.88
2023-01-25T12:14:43.037Z,96964.44
2023-01-25T12:17:07.993Z,96956.47
2023-01-25T12:19:45.754Z,96945.72
2023-01-25T12:22:05.131Z,96936.91
2023-01-25T12:24:33.387Z,96940.81
2023-01-25T12:26:47.355Z,96934.91
2023-01-25T12:28:52.925Z,96939.81
2023-01-25T12:31:03.007Z,96849.00
2023-01-25T12:33:15.101Z,96925.28
2023-01-25T12:35:31.745Z,96913.78
2023-01-25T12:37:42.119Z,96844.97
2023-01-25T12:39:49.994Z,96895.38
2023-01-25T12:41:57.043Z,96896.00
2023-01-25T12:44:09.772Z,96900.13
2023-01-25T12:46:20.633Z,96900.03
2023-01-25T12:48:28.176Z,96893.66
2023-01-25T12:50:36.084Z,96891.13
2023-01-25T12:52:42.191Z,96882.97
2023-01-25T12:54:47.265Z,96883.34
2023-01-25T12:56:58.285Z,96882.94
2023-01-25T12:59:09.132Z,96848.31
2023-01-25T13:01:25.352Z,96881.78
2023-01-25T13:03:34.541Z,96873.50
2023-01-25T13:05:43.028Z,96871.59
2023-01-25T13:07:54.532Z,96874.50
2023-01-25T13:10:02.531Z,96863.56
2023-01-25T13:12:06.623Z,96870.44
2023-01-25T13:14:27.593Z,96862.63
2023-01-25T13:16:38.203Z,96866.19
2023-01-25T13:18:42.022Z,96857.13
2023-01-25T13:20:53.119Z,96838.06
2023-01-25T13:22:58.798Z,96842.75
2023-01-25T13:25:11.635Z,96834.06
2023-01-25T13:27:26.267Z,96844.09
2023-01-25T13:29:47.142Z,96852.94
2023-01-25T13:31:53.952Z,96841.03
2023-01-25T13:33:57.482Z,96844.09
2023-01-25T13:36:41.160Z,96837.94
2023-01-25T13:38:43.894Z,96831.34
2023-01-25T13:41:02.553Z,96832.34
2023-01-25T13:43:18.376Z,96829.25
2023-01-25T13:45:22.384Z,96828.56
2023-01-25T13:47:29.303Z,96815.31
2023-01-25T13:49:37.917Z,96691.56
2023-01-25T13:51:43.178Z,96822.72
2023-01-25T13:53:56.398Z,96822.25
2023-01-25T13:55:59.610Z,96818.47
2023-01-25T13:58:17.845Z,96800.22
2023-01-25T14:00:21.916Z,96791.88
2023-01-25T14:02:26.813Z,96799.75
2023-01-25T14:04:31.613Z,96795.00
2023-01-25T14:06:38.023Z,96765.38
2023-01-25T14:08:41.140Z,96791.94
2023-01-25T14:10:45.437Z,96765.22
2023-01-25T14:12:48.221Z,96801.81
2023-01-25T14:14:50.944Z,96809.59
2023-01-25T14:19:25.532Z,96703.75
2023-01-25T14:21:29.087Z,96796.78
2023-01-25T14:23:32.623Z,96794.59
2023-01-25T14:25:35.379Z,96790.22
2023-01-25T14:27:43.745Z,96799.06
2023-01-25T14:29:49.728Z,96770.59
2023-01-25T14:31:52.636Z,96797.38
2023-01-25T14:33:58.255Z,96786.13
2023-01-25T14:36:16.352Z,96793.06
2023-01-25T14:38:32.428Z,96799.75
2023-01-25T14:40:35.200Z,96798.97
2023-01-25T14:42:37.971Z,96805.31
2023-01-25T14:44:41.328Z,96807.56
2023-01-25T14:46:44.207Z,96808.97
2023-01-25T14:48:47.092Z,96805.41
2023-01-25T14:50:49.967Z,96805.53
2023-01-25T14:52:54.068Z,96795.81
2023-01-25T14:54:59.670Z,96792.75
2023-01-25T14:57:04.587Z,96801.66
2023-01-25T14:59:08.101Z,96798.81
2023-01-25T15:01:27.109Z,96788.03
2023-01-25T15:03:31.771Z,96779.44
2023-01-25T15:05:37.116Z,96726.59
2023-01-25T15:07:45.679Z,96766.72
2023-01-25T15:10:04.255Z,96777.25
2023-01-25T15:12:27.053Z,96783.16
2023-01-25T15:14:30.001Z,96709.81
2023-01-25T15:16:36.512Z,96776.44
2023-01-25T15:18:47.271Z,96754.22
2023-01-25T15:20:50.123Z,96765.19
2023-01-25T15:22:52.947Z,96765.66
2023-01-25T15:24:58.514Z,96759.53
2023-01-25T15:27:03.308Z,96716.38
2023-01-25T15:29:13.601Z,96756.09
2023-01-25T15:31:18.866Z,96681.84
2023-01-25T15:33:24.635Z,96750.34
2023-01-25T15:35:27.775Z,96752.47
2023-01-25T15:37:30.550Z,96744.97
2023-01-25T15:39:34.862Z,96748.72
2023-01-25T15:41:37.609Z,96738.94
2023-01-25T15:43:41.873Z,96735.78
2023-01-25T15:45:46.726Z,96676.97
2023-01-25T15:47:49.777Z,96726.41
2023-01-25T15:49:53.799Z,96716.75
2023-01-25T15:51:56.830Z,96717.94
2023-01-25T15:53:59.912Z,96723.44
2023-01-25T15:56:06.873Z,96720.13
2023-01-25T15:58:12.335Z,96708.53
2023-01-25T16:00:23.104Z,96712.03
2023-01-25T16:02:26.512Z,96726.69
2023-01-25T16:04:29.274Z,96723.03
2023-01-25T16:06:37.618Z,96713.34
2023-01-25T16:08:40.476Z,96711.25
2023-01-25T16:10:43.143Z,96704.72
2023-01-25T16:12:46.261Z,96702.97
2023-01-25T16:14:49.160Z,96694.28
2023-01-25T16:16:53.883Z,96700.03
2023-01-25T16:18:56.619Z,96688.13
2023-01-25T16:20:59.290Z,96688.56
2023-01-25T16:23:02.071Z,96684.91
2023-01-25T16:25:05.054Z,96684.63
2023-01-25T16:27:10.023Z,96676.56
2023-01-25T16:29:13.770Z,96682.75
2023-01-25T16:31:31.202Z,96668.75
2023-01-25T16:33:36.682Z,96685.66
2023-01-25T16:35:39.417Z,96686.50
2023-01-25T16:37:42.107Z,96686.84
2023-01-25T16:39:45.412Z,96685.56
2023-01-25T16:41:48.448Z,96689.91
2023-01-25T16:43:51.637Z,96679.44
2023-01-25T16:45:58.668Z,96668.94
2023-01-25T16:48:01.904Z,96639.09
2023-01-25T16:50:13.465Z,96654.31
2023-01-25T16:52:16.186Z,96674.59
2023-01-25T16:54:20.438Z,96671.38
2023-01-25T16:56:24.806Z,96673.19
2023-01-25T16:58:27.709Z,96682.25
2023-01-25T17:00:31.689Z,96655.06
2023-01-25T17:02:34.643Z,96670.19
2023-01-25T17:04:37.404Z,96667.84
2023-01-25T17:06:44.041Z,96673.94
2023-01-25T17:08:47.119Z,96667.66
2023-01-25T17:10:50.567Z,96668.13
2023-01-25T17:12:53.560Z,96673.88
2023-01-25T17:14:59.404Z,96663.63
2023-01-25T17:17:02.212Z,96665.53
2023-01-25T17:19:07.052Z,96668.78
2023-01-25T17:21:09.809Z,96634.59
2023-01-25T17:23:13.899Z,96616.63
2023-01-25T17:25:16.707Z,96665.06
2023-01-25T17:27:20.955Z,96636.41
2023-01-25T17:29:24.239Z,96645.66
2023-01-25T17:31:29.869Z,96659.31
2023-01-25T17:33:32.774Z,96661.44
2023-01-25T17:35:36.365Z,96636.47
2023-01-25T17:37:41.032Z,96659.97
2023-01-25T17:39:45.209Z,96656.25
2023-01-25T17:41:50.559Z,96648.59
2023-01-25T17:43:53.408Z,96644.34
2023-01-25T17:45:56.164Z,96606.97
2023-01-25T17:47:58.964Z,96648.16
2023-01-25T17:50:01.712Z,96636.75
2023-01-25T17:52:04.657Z,96643.50
2023-01-25T17:54:07.493Z,96534.91
2023-01-25T17:56:13.712Z,96637.22
2023-01-25T17:58:16.475Z,96629.50
2023-01-25T18:00:20.121Z,96593.47
2023-01-25T18:02:22.922Z,96621.78
2023-01-25T18:04:25.773Z,96626.13
2023-01-25T18:06:30.267Z,96613.00
2023-01-25T18:08:33.094Z,96514.22
2023-01-25T18:10:35.884Z,96616.28
2023-01-25T18:12:40.190Z,96616.78
2023-01-25T18:14:45.027Z,96607.75
2023-01-25T18:16:47.847Z,96596.44
2023-01-25T18:18:51.854Z,96605.22
2023-01-25T18:21:03.530Z,96609.16
2023-01-25T18:23:06.359Z,96612.78
2023-01-25T18:25:28.915Z,96551.53
2023-01-25T18:27:31.724Z,96609.13
2023-01-25T18:29:47.196Z,96602.81
2023-01-25T18:31:51.056Z,96591.16
2023-01-25T18:33:54.050Z,96576.88
2023-01-25T18:36:00.835Z,96503.66
2023-01-25T18:38:05.300Z,96597.50
2023-01-25T18:40:10.685Z,96597.03
2023-01-25T18:42:13.594Z,96589.94
2023-01-25T18:44:16.434Z,96593.72
2023-01-25T18:46:20.605Z,96583.69
2023-01-25T18:48:30.842Z,96563.97
2023-01-25T18:50:33.820Z,96540.50
2023-01-25T18:52:37.027Z,96416.75
2023-01-25T18:54:39.905Z,96584.56
2023-01-25T18:56:42.649Z,96577.16
2023-01-25T18:58:46.249Z,96577.88
2023-01-25T19:00:48.997Z,96562.09
2023-01-25T19:02:53.356Z,96385.72
2023-01-25T19:04:56.221Z,96568.53
2023-01-25T19:07:01.473Z,96570.09
2023-01-25T19:09:04.420Z,96573.66
2023-01-25T19:11:09.836Z,96573.56
2023-01-25T19:13:12.611Z,96559.16
2023-01-25T19:15:15.617Z,96540.22
2023-01-25T19:17:18.418Z,96554.38
2023-01-25T19:19:23.538Z,96504.47
2023-01-25T19:21:28.887Z,96538.97
2023-01-25T19:23:34.336Z,96517.63
2023-01-25T19:25:37.109Z,96536.31
2023-01-25T19:27:39.879Z,96553.34
2023-01-25T19:29:42.679Z,96506.09
2023-01-25T19:31:45.536Z,96548.34
2023-01-25T19:33:48.998Z,96541.63
2023-01-25T19:36:01.360Z,96544.19
2023-01-25T19:38:04.207Z,96522.81
2023-01-25T19:40:07.941Z,96543.94
2023-01-25T19:42:10.779Z,96543.25
2023-01-25T19:44:15.178Z,96556.06
2023-01-25T19:46:19.356Z,96537.44
2023-01-25T19:48:22.131Z,96538.19
2023-01-25T19:50:24.923Z,96534.81
2023-01-25T19:52:29.365Z,96535.91
2023-01-25T19:54:32.106Z,96534.72
2023-01-25T19:56:36.846Z,96525.00
2023-01-25T19:58:39.549Z,96481.28
2023-01-25T20:00:42.678Z,96526.34
2023-01-25T20:02:45.765Z,96373.91
2023-01-25T20:04:48.628Z,96337.19
2023-01-25T20:06:52.576Z,96065.56
2023-01-25T20:08:56.834Z,96481.88
2023-01-25T20:11:00.340Z,96531.31
2023-01-25T20:13:03.118Z,96472.38
2023-01-25T20:15:06.947Z,96516.88
2023-01-25T20:17:09.717Z,96517.81
2023-01-25T20:19:12.982Z,96515.72
2023-01-25T20:21:17.755Z,96512.06
2023-01-25T20:23:20.513Z,96507.50
2023-01-25T20:25:25.823Z,96514.34
2023-01-25T20:27:29.115Z,96494.94
2023-01-25T20:29:31.822Z,96507.25
2023-01-25T20:31:36.515Z,96504.81
2023-01-25T20:33:39.298Z,96510.69
2023-01-25T20:35:42.291Z,96475.19
2023-01-25T20:37:44.992Z,96503.94
2023-01-25T20:39:47.730Z,96446.38
2023-01-25T20:41:53.639Z,96495.69
2023-01-25T20:44:00.147Z,96378.56
2023-01-25T20:46:03.333Z,96488.38
2023-01-25T20:48:06.482Z,96494.66
2023-01-25T20:50:10.533Z,96447.88
2023-01-25T20:52:13.915Z,96479.81
2023-01-25T20:54:18.100Z,96489.88
2023-01-25T20:56:21.057Z,96475.69
2023-01-25T20:58:25.250Z,96439.38
2023-01-25T21:00:27.994Z,96488.41
2023-01-25T21:02:30.757Z,96486.84
2023-01-25T21:04:33.524Z,96442.16
2023-01-25T21:06:36.468Z,96458.72
2023-01-25T21:08:39.205Z,96460.06
2023-01-25T21:10:47.166Z,96444.59
2023-01-25T21:12:49.921Z,96469.66
2023-01-25T21:14:54.048Z,96460.31
2023-01-25T21:16:56.834Z,96450.72
2023-01-25T21:19:04.675Z,96431.34
2023-01-25T21:21:09.691Z,96297.69
2023-01-25T21:23:12.452Z,96329.94
2023-01-25T21:25:15.290Z,96448.94
2023-01-25T21:27:18.056Z,96445.84
2023-01-25T21:29:21.163Z,96451.56
2023-01-25T21:31:27.618Z,96446.84
2023-01-25T21:33:30.400Z,96431.81
2023-01-25T21:35:34.081Z,96394.66
2023-01-25T21:37:37.304Z,96436.09
2023-01-25T21:39:40.063Z,96445.16
2023-01-25T21:41:42.770Z,96437.50
2023-01-25T21:44:04.143Z,96429.91
2023-01-25T21:46:16.224Z,96426.19
2023-01-25T21:48:40.400Z,96363.72
2023-01-25T21:51:00.842Z,96430.75
2023-01-25T21:53:03.588Z,96435.06
2023-01-25T21:55:07.282Z,96429.56
2023-01-25T21:57:11.564Z,96423.97
2023-01-25T21:59:15.239Z,96400.75
2023-01-25T22:01:20.184Z,96419.59
2023-01-25T22:03:24.596Z,96416.28
2023-01-25T22:05:27.411Z,96421.75
2023-01-25T22:07:32.190Z,96378.94
2023-01-25T22:09:36.320Z,96398.03
2023-01-25T22:11:39.118Z,96402.66
2023-01-25T22:13:42.391Z,96404.66
2023-01-25T22:15:45.211Z,96406.25
2023-01-25T22:17:48.029Z,96316.88
2023-01-25T22:19:52.139Z,96395.63
2023-01-25T22:21:54.921Z,96398.84
2023-01-25T22:23:58.519Z,96407.72
2023-01-25T22:26:03.010Z,96400.09
2023-01-25T22:28:07.337Z,96412.06
2023-01-25T22:30:11.814Z,96404.13
2023-01-25T22:32:14.800Z,96403.19
2023-01-25T22:34:17.634Z,96400.19
2023-01-25T22:36:23.715Z,96403.13
2023-01-25T22:38:26.442Z,96405.88
2023-01-25T22:40:29.088Z,96402.91
2023-01-25T22:42:31.788Z,96400.03
2023-01-25T22:44:34.471Z,96397.72
2023-01-25T22:46:37.978Z,96389.44
2023-01-25T22:48:40.658Z,96386.47
2023-01-25T22:50:43.303Z,96382.97
2023-01-25T22:52:48.905Z,96341.16
2023-01-25T22:54:51.811Z,96386.44
2023-01-25T22:56:54.484Z,96388.44
2023-01-25T22:58:57.176Z,96363.53
2023-01-25T23:00:59.881Z,96363.41
2023-01-25T23:03:02.636Z,96382.09
2023-01-25T23:05:05.973Z,96389.84
2023-01-25T23:07:18.415Z,96384.69
2023-01-25T23:09:22.511Z,96305.84
2023-01-25T23:11:25.928Z,96363.88
2023-01-25T23:13:29.591Z,96355.91
2023-01-25T23:15:31.502Z,96372.22
2023-01-25T23:17:52.647Z,96375.88
2023-01-25T23:19:55.386Z,96352.56
2023-01-25T23:21:58.019Z,96378.41
2023-01-25T23:24:01.612Z,96377.03
2023-01-25T23:26:06.091Z,96322.50
2023-01-25T23:28:08.803Z,96365.59
2023-01-25T23:30:12.476Z,96377.66
2023-01-25T23:32:15.384Z,96341.47
2023-01-25T23:34:18.154Z,96325.97
2023-01-25T23:36:22.384Z,96247.84
2023-01-25T23:38:25.096Z,96358.91
2023-01-25T23:40:27.818Z,96307.19
2023-01-25T23:42:31.906Z,96355.31
2023-01-25T23:44:34.625Z,96337.00
2023-01-25T23:46:37.523Z,96368.31
2023-01-25T23:48:40.269Z,96341.09
2023-01-25T23:50:42.954Z,96283.00
2023-01-25T23:52:45.632Z,96354.38
2023-01-25T23:54:48.320Z,96348.22
2023-01-25T23:56:51.040Z,96338.16
2023-01-25T23:58:55.571Z,96351.47
